Time;durP1;ratioP1;P1;durP2;ratioP2;P2;SDS_P1;SDS_P2;PMS_P1;PMS_P2;Temp;Humidity;BMP_temperature;BMP_pressure;BME280_temperature;BME280_humidity;BME280_pressure;Samples;Min_cycle;Max_cycle;Signal;HPM_P1;HPM_P2
2021/12/11 00:02:17;;;;;;;0.35;0.10;;;6.60;96.70;;;;;;4868509;29;20088;-70
2021/12/11 00:04:56;;;;;;;0.22;0.08;;;6.60;96.70;;;;;;4871900;29;20056;-70
2021/12/11 00:07:29;;;;;;;0.20;0.10;;;6.60;96.70;;;;;;4868531;29;20053;-70
2021/12/11 00:10:10;;;;;;;0.10;0.00;;;6.60;96.70;;;;;;4838532;29;20049;-70
2021/12/11 00:12:46;;;;;;;0.05;0.05;;;6.60;96.70;;;;;;4853567;29;20053;-70
2021/12/11 00:15:18;;;;;;;0.10;0.10;;;6.60;96.70;;;;;;4870793;29;20128;-70
2021/12/11 00:17:47;;;;;;;0.20;0.00;;;6.60;96.70;;;;;;4852643;29;20051;-70
2021/12/11 00:20:18;;;;;;;0.30;0.10;;;6.70;96.70;;;;;;4871924;29;20127;-70
2021/12/11 00:22:47;;;;;;;0.10;0.10;;;6.70;96.70;;;;;;4853355;29;20132;-68
2021/12/11 00:25:18;;;;;;;0.22;0.10;;;6.80;96.70;;;;;;4857556;29;20045;-68
2021/12/11 00:27:49;;;;;;;0.30;0.10;;;6.80;96.70;;;;;;4852825;29;20051;-68
2021/12/11 00:30:24;;;;;;;0.75;0.17;;;6.90;96.70;;;;;;4869310;29;20045;-68
2021/12/11 00:32:59;;;;;;;0.65;0.08;;;6.90;96.70;;;;;;4867418;29;20049;-68
2021/12/11 00:35:28;;;;;;;0.03;0.00;;;7.00;96.70;;;;;;4867661;29;20049;-68
2021/12/11 00:38:03;;;;;;;0.45;0.10;;;7.10;96.70;;;;;;4853938;29;20052;-68
2021/12/11 00:40:32;;;;;;;0.60;0.00;;;7.10;96.70;;;;;;4872778;29;20589;-68
2021/12/11 00:43:04;;;;;;;0.10;0.00;;;7.10;96.70;;;;;;4853318;29;20049;-68
2021/12/11 00:45:35;;;;;;;0.52;0.22;;;7.10;96.70;;;;;;4870031;29;20865;-68
2021/12/11 00:48:06;;;;;;;0.10;0.10;;;7.10;96.70;;;;;;4867108;29;20045;-68
2021/12/11 00:50:37;;;;;;;1.83;0.10;;;7.20;96.70;;;;;;4872054;29;20553;-68
2021/12/11 00:53:11;;;;;;;0.20;0.10;;;7.30;96.70;;;;;;4874863;29;20076;-68
2021/12/11 00:55:45;;;;;;;0.10;0.00;;;7.30;96.70;;;;;;4864996;29;20049;-68
2021/12/11 00:58:16;;;;;;;0.65;0.17;;;7.40;96.70;;;;;;4872259;29;20049;-68
2021/12/11 01:00:48;;;;;;;0.60;0.00;;;7.40;96.70;;;;;;4870587;29;20041;-69
2021/12/11 01:03:20;;;;;;;0.43;0.10;;;7.40;96.70;;;;;;4872445;29;20048;-69
2021/12/11 01:05:51;;;;;;;0.40;0.10;;;7.40;96.70;;;;;;4874605;29;20052;-69
2021/12/11 01:08:25;;;;;;;0.43;0.13;;;7.40;96.70;;;;;;4875110;29;20156;-69
2021/12/11 01:11:01;;;;;;;0.08;0.00;;;7.40;96.70;;;;;;4854052;29;20053;-69
2021/12/11 01:13:34;;;;;;;0.30;0.10;;;7.50;96.70;;;;;;4853788;29;20053;-69
2021/12/11 01:16:12;;;;;;;0.73;0.00;;;7.50;96.70;;;;;;4869209;29;20049;-68
2021/12/11 01:18:44;;;;;;;0.20;0.10;;;7.50;96.70;;;;;;4869970;29;20507;-68
2021/12/11 01:21:31;;;;;;;0.28;0.08;;;7.50;96.70;;;;;;4870034;29;20593;-68
2021/12/11 01:26:36;;;;;;;0.20;0.10;;;7.50;96.70;;;;;;4869963;29;20049;-68
2021/12/11 01:29:06;;;;;;;0.40;0.00;;;7.40;96.70;;;;;;4849722;29;20045;-68
2021/12/11 01:31:35;;;;;;;0.30;0.08;;;7.40;96.70;;;;;;4870694;29;20051;-68
2021/12/11 01:34:03;;;;;;;0.00;0.00;;;7.40;96.70;;;;;;4869596;29;20292;-68
2021/12/11 01:36:32;;;;;;;0.25;0.00;;;7.40;96.70;;;;;;4873992;29;20060;-68
2021/12/11 01:39:06;;;;;;;0.38;0.00;;;7.40;96.70;;;;;;4873348;29;20048;-68
2021/12/11 01:41:36;;;;;;;0.00;0.00;;;7.40;96.70;;;;;;4869408;29;20445;-68
2021/12/11 01:44:11;;;;;;;0.20;0.10;;;7.30;96.70;;;;;;4868201;29;20043;-69
2021/12/11 01:46:40;;;;;;;0.00;0.00;;;7.30;96.70;;;;;;4865950;29;20056;-69
2021/12/11 01:49:12;;;;;;;0.10;0.10;;;7.30;96.70;;;;;;4867545;29;20127;-69
2021/12/11 01:51:44;;;;;;;0.28;0.03;;;7.30;96.70;;;;;;4867992;29;20079;-69
2021/12/11 01:54:17;;;;;;;0.17;0.00;;;7.30;96.70;;;;;;4866947;29;20072;-69
2021/12/11 01:56:49;;;;;;;0.00;0.00;;;7.30;96.70;;;;;;4837856;29;20052;-69
2021/12/11 01:59:20;;;;;;;0.05;0.03;;;7.30;96.70;;;;;;4868683;29;20041;-69
2021/12/11 02:01:52;;;;;;;0.10;0.10;;;7.30;96.70;;;;;;4870158;29;20173;-69
2021/12/11 02:04:25;;;;;;;0.52;0.10;;;7.30;96.70;;;;;;4868999;29;20040;-69
2021/12/11 02:06:55;;;;;;;0.32;0.32;;;7.30;96.70;;;;;;4850204;29;20151;-69
2021/12/11 02:09:26;;;;;;;1.13;0.03;;;7.20;96.70;;;;;;4838485;29;20053;-69
2021/12/11 02:12:08;;;;;;;0.00;0.00;;;7.20;96.70;;;;;;4851361;29;20423;-69
2021/12/11 02:14:41;;;;;;;0.17;0.10;;;7.20;96.70;;;;;;4867424;29;20125;-69
2021/12/11 02:17:16;;;;;;;0.32;0.10;;;7.20;96.70;;;;;;4868472;29;20400;-69
2021/12/11 02:19:46;;;;;;;0.20;0.10;;;7.20;96.70;;;;;;4872175;29;20049;-69
2021/12/11 02:22:18;;;;;;;0.10;0.03;;;7.20;96.70;;;;;;4866420;29;20524;-69
2021/12/11 02:24:53;;;;;;;0.30;0.10;;;7.20;96.70;;;;;;4854976;29;20041;-69
2021/12/11 02:27:26;;;;;;;0.50;0.10;;;7.20;96.70;;;;;;4869987;29;20134;-69
2021/12/11 02:29:58;;;;;;;0.10;0.00;;;7.20;96.70;;;;;;4852190;29;20057;-69
2021/12/11 02:32:32;;;;;;;0.47;0.10;;;7.10;96.70;;;;;;4839323;29;20049;-69
2021/12/11 02:35:11;;;;;;;0.20;0.10;;;7.10;96.70;;;;;;4854635;29;20045;-69
2021/12/11 02:37:45;;;;;;;0.10;0.10;;;7.10;96.70;;;;;;4853038;29;20049;-69
2021/12/11 02:40:19;;;;;;;0.10;0.00;;;7.10;96.70;;;;;;4857130;29;20088;-69
2021/12/11 02:42:53;;;;;;;0.50;0.10;;;7.10;96.70;;;;;;4868686;29;20054;-69
2021/12/11 02:45:29;;;;;;;0.40;0.17;;;7.10;96.70;;;;;;4852931;29;20331;-69
2021/12/11 02:48:03;;;;;;;0.25;0.10;;;7.10;96.70;;;;;;4871465;29;20049;-69
2021/12/11 02:50:36;;;;;;;0.93;0.00;;;7.10;96.70;;;;;;4867479;29;20065;-69
2021/12/11 02:53:09;;;;;;;0.50;0.20;;;7.10;96.70;;;;;;4867129;29;20101;-69
2021/12/11 02:55:41;;;;;;;0.77;0.20;;;7.10;96.70;;;;;;4851932;29;20059;-69
2021/12/11 02:58:14;;;;;;;0.20;0.10;;;7.10;96.70;;;;;;4856327;29;20121;-69
2021/12/11 03:00:49;;;;;;;0.47;0.30;;;7.10;96.70;;;;;;4871221;29;20053;-69
2021/12/11 03:03:25;;;;;;;0.40;0.20;;;7.10;96.70;;;;;;4873252;29;20045;-69
2021/12/11 03:06:03;;;;;;;0.25;0.10;;;7.10;96.70;;;;;;4854358;29;20516;-69
2021/12/11 03:08:33;;;;;;;0.20;0.10;;;7.00;96.70;;;;;;4872571;29;20053;-69
2021/12/11 03:11:05;;;;;;;0.20;0.15;;;7.00;96.70;;;;;;4853180;29;20439;-69
2021/12/11 03:13:37;;;;;;;0.70;0.30;;;7.00;96.70;;;;;;4876001;29;20052;-69
2021/12/11 03:16:06;;;;;;;0.35;0.20;;;7.00;96.70;;;;;;4870116;29;20051;-69
2021/12/11 03:18:34;;;;;;;0.50;0.30;;;6.90;96.70;;;;;;4856841;29;20459;-69
2021/12/11 03:21:03;;;;;;;1.20;0.40;;;6.90;96.70;;;;;;4870522;29;20076;-69
2021/12/11 03:23:32;;;;;;;0.43;0.30;;;6.90;96.70;;;;;;4876074;29;20524;-69
2021/12/11 03:26:00;;;;;;;0.52;0.30;;;6.90;96.70;;;;;;4871666;29;20045;-69
2021/12/11 03:28:28;;;;;;;0.45;0.28;;;6.90;96.70;;;;;;4860202;29;20123;-69
2021/12/11 03:31:00;;;;;;;0.75;0.40;;;6.90;96.70;;;;;;4854403;29;20577;-69
2021/12/11 03:33:32;;;;;;;1.73;0.28;;;6.90;96.70;;;;;;4854408;29;20077;-69
2021/12/11 03:36:02;;;;;;;0.77;0.35;;;6.80;96.70;;;;;;4873181;29;20071;-69
2021/12/11 03:38:33;;;;;;;0.85;0.30;;;6.80;96.70;;;;;;4852243;29;20160;-69
2021/12/11 03:41:01;;;;;;;0.80;0.40;;;6.80;96.70;;;;;;4873730;29;20523;-69
2021/12/11 03:43:29;;;;;;;0.35;0.30;;;6.80;96.70;;;;;;4872353;29;20041;-69
2021/12/11 03:46:02;;;;;;;0.30;0.20;;;6.80;96.70;;;;;;4872996;29;20436;-70
2021/12/11 03:48:34;;;;;;;1.08;0.20;;;6.80;96.70;;;;;;4872065;29;20080;-70
2021/12/11 03:51:06;;;;;;;0.98;0.40;;;6.80;96.70;;;;;;4870085;29;20037;-70
2021/12/11 03:53:36;;;;;;;0.73;0.40;;;6.70;96.70;;;;;;4851887;29;20148;-70
2021/12/11 03:56:07;;;;;;;0.30;0.25;;;6.70;96.70;;;;;;4870066;29;20053;-70
2021/12/11 03:58:36;;;;;;;0.63;0.25;;;6.70;96.70;;;;;;4869776;29;20048;-70
2021/12/11 04:01:07;;;;;;;0.43;0.30;;;6.70;96.70;;;;;;4854309;29;20045;-70
2021/12/11 04:03:38;;;;;;;0.82;0.30;;;6.70;96.70;;;;;;4854206;29;20060;-70
2021/12/11 04:06:09;;;;;;;0.50;0.32;;;6.70;96.70;;;;;;4871095;29;20045;-70
2021/12/11 04:08:42;;;;;;;0.70;0.30;;;6.70;96.70;;;;;;4873831;29;20080;-70
2021/12/11 04:11:14;;;;;;;0.45;0.30;;;6.60;96.70;;;;;;4869881;29;20340;-70
2021/12/11 04:13:43;;;;;;;0.63;0.30;;;6.60;96.70;;;;;;4851456;29;20049;-70
2021/12/11 04:16:12;;;;;;;0.40;0.25;;;6.60;96.70;;;;;;4872426;29;20504;-70
2021/12/11 04:18:41;;;;;;;0.45;0.20;;;6.60;96.70;;;;;;4852265;29;20611;-70
2021/12/11 04:21:09;;;;;;;0.50;0.20;;;6.60;96.70;;;;;;4874694;29;20041;-70
2021/12/11 04:23:38;;;;;;;0.20;0.20;;;6.60;96.70;;;;;;4867729;29;20627;-70
2021/12/11 04:26:06;;;;;;;0.52;0.20;;;6.60;96.70;;;;;;4875330;29;20041;-70
2021/12/11 04:28:36;;;;;;;0.40;0.28;;;6.60;96.70;;;;;;4867417;29;20530;-70
2021/12/11 04:31:08;;;;;;;0.20;0.20;;;6.60;96.70;;;;;;4873100;29;20041;-70
2021/12/11 04:33:39;;;;;;;0.35;0.20;;;6.60;96.70;;;;;;4868755;29;20057;-70
2021/12/11 04:36:10;;;;;;;1.23;0.17;;;6.70;96.70;;;;;;4842280;29;20064;-70
2021/12/11 04:38:40;;;;;;;0.82;0.20;;;6.70;96.70;;;;;;4871240;29;20408;-70
2021/12/11 04:41:10;;;;;;;0.77;0.20;;;6.70;96.70;;;;;;4874652;29;20064;-70
2021/12/11 04:43:37;;;;;;;0.43;0.20;;;6.80;96.70;;;;;;4856410;29;20055;-70
2021/12/11 04:46:08;;;;;;;0.40;0.20;;;6.80;96.70;;;;;;4854388;29;20448;-70
2021/12/11 04:54:38;;;;;;;0.65;0.28;;;6.80;96.70;;;;;;4868949;29;20602;-70
2021/12/11 05:02:42;;;;;;;0.52;0.20;;;6.70;96.70;;;;;;4868049;29;20052;-70
2021/12/11 05:07:54;;;;;;;0.77;0.40;;;6.60;96.70;;;;;;4870689;29;20060;-70
2021/12/11 05:10:36;;;;;;;0.40;0.30;;;6.60;96.70;;;;;;4857717;29;20101;-70
2021/12/11 05:13:04;;;;;;;0.77;0.50;;;6.60;96.70;;;;;;4875162;29;20059;-70
2021/12/11 05:15:34;;;;;;;1.45;0.50;;;6.50;96.70;;;;;;4868284;29;20044;-70
2021/12/11 05:18:04;;;;;;;1.45;0.60;;;6.40;96.70;;;;;;4866052;29;20049;-70
2021/12/11 05:20:33;;;;;;;1.52;0.60;;;6.40;96.70;;;;;;4868565;29;20045;-70
2021/12/11 05:23:01;;;;;;;0.63;0.38;;;6.30;96.70;;;;;;4869211;29;20073;-70
2021/12/11 05:25:30;;;;;;;1.65;0.60;;;6.30;96.70;;;;;;4866852;29;20045;-70
2021/12/11 05:27:58;;;;;;;0.70;0.50;;;6.20;96.70;;;;;;4868785;29;20084;-70
2021/12/11 05:30:30;;;;;;;1.25;0.80;;;6.20;96.70;;;;;;4867404;29;20041;-70
2021/12/11 05:32:59;;;;;;;1.08;0.70;;;6.20;96.70;;;;;;4851806;29;20051;-70
2021/12/11 05:35:29;;;;;;;1.05;0.57;;;6.10;96.70;;;;;;4867208;29;20136;-70
2021/12/11 05:37:59;;;;;;;1.10;0.50;;;6.10;96.70;;;;;;4868930;29;20128;-70
2021/12/11 05:40:28;;;;;;;0.98;0.73;;;6.10;96.70;;;;;;4851009;29;20045;-70
2021/12/11 05:42:58;;;;;;;1.85;0.68;;;6.10;96.70;;;;;;4870682;29;20056;-70
2021/12/11 05:45:26;;;;;;;1.02;0.55;;;6.00;96.70;;;;;;4869871;29;20583;-70
2021/12/11 05:47:54;;;;;;;0.95;0.80;;;6.00;96.70;;;;;;4851830;29;20045;-70
2021/12/11 05:50:25;;;;;;;3.22;2.03;;;6.10;96.70;;;;;;4868987;29;20495;-70
2021/12/11 05:52:53;;;;;;;4.68;3.03;;;5.90;96.70;;;;;;4870355;29;20049;-70
2021/12/11 05:55:22;;;;;;;3.20;1.95;;;5.80;96.70;;;;;;4854923;29;20449;-70
2021/12/11 05:57:54;;;;;;;3.20;2.13;;;5.80;96.70;;;;;;4867193;29;20053;-70
2021/12/11 06:00:26;;;;;;;1.85;1.30;;;5.90;96.70;;;;;;4865216;29;20049;-70
2021/12/11 06:02:58;;;;;;;2.38;1.50;;;5.70;96.70;;;;;;4866909;29;20053;-70
2021/12/11 06:05:27;;;;;;;1.60;1.20;;;5.70;96.70;;;;;;4852867;29;20694;-70
2021/12/11 06:07:55;;;;;;;2.50;1.52;;;5.70;96.70;;;;;;4867573;29;20067;-70
2021/12/11 06:10:24;;;;;;;1.38;1.02;;;5.60;96.70;;;;;;4854104;29;20043;-70
2021/12/11 06:12:54;;;;;;;1.48;0.88;;;5.70;96.70;;;;;;4869374;29;20479;-70
2021/12/11 06:15:25;;;;;;;3.60;0.90;;;5.70;96.70;;;;;;4869520;29;20045;-70
2021/12/11 06:17:53;;;;;;;2.17;0.90;;;5.60;96.70;;;;;;4869918;29;20113;-70
2021/12/11 06:20:24;;;;;;;2.58;1.25;;;5.60;96.70;;;;;;4867269;29;20494;-70
2021/12/11 06:22:57;;;;;;;2.05;1.17;;;5.50;96.70;;;;;;4850249;29;20519;-70
2021/12/11 06:25:29;;;;;;;3.15;1.50;;;5.60;96.70;;;;;;4853400;29;20152;-70
2021/12/11 06:27:56;;;;;;;2.83;2.20;;;5.60;96.70;;;;;;4867642;29;20077;-70
2021/12/11 06:30:27;;;;;;;3.22;1.80;;;5.30;96.70;;;;;;4853357;29;20131;-70
2021/12/11 06:32:56;;;;;;;4.22;2.40;;;5.10;96.70;;;;;;4867121;29;20053;-70
2021/12/11 06:35:29;;;;;;;3.97;2.40;;;5.10;96.70;;;;;;4852405;29;20048;-70
2021/12/11 06:38:00;;;;;;;5.72;2.97;;;5.20;96.70;;;;;;4866952;29;20848;-70
2021/12/11 06:40:28;;;;;;;4.15;2.33;;;5.10;96.70;;;;;;4868302;29;20044;-70
2021/12/11 06:42:56;;;;;;;4.55;2.40;;;5.00;96.70;;;;;;4866183;29;20122;-70
2021/12/11 06:45:27;;;;;;;3.53;2.30;;;5.00;96.70;;;;;;4856145;29;20109;-69
2021/12/11 06:47:55;;;;;;;4.07;1.83;;;5.10;96.70;;;;;;4852793;29;20401;-70
2021/12/11 06:50:24;;;;;;;5.68;3.28;;;5.10;96.70;;;;;;4867556;29;20866;-70
2021/12/11 06:52:54;;;;;;;6.05;3.65;;;5.10;96.70;;;;;;4867684;29;20124;-70
2021/12/11 06:55:22;;;;;;;5.88;2.63;;;4.90;96.70;;;;;;4873199;29;20606;-70
2021/12/11 06:57:49;;;;;;;3.45;2.08;;;5.10;96.70;;;;;;4853948;29;20081;-71
2021/12/11 07:00:20;;;;;;;3.70;2.20;;;5.20;96.70;;;;;;4869509;29;20037;-71
2021/12/11 07:02:49;;;;;;;2.70;1.95;;;5.00;96.70;;;;;;4867491;29;20048;-71
2021/12/11 07:05:17;;;;;;;3.85;1.73;;;5.10;96.70;;;;;;4849014;29;20073;-71
2021/12/11 07:07:44;;;;;;;2.42;1.52;;;5.10;96.70;;;;;;4856291;29;20061;-71
2021/12/11 07:10:15;;;;;;;2.90;1.58;;;5.00;96.70;;;;;;4866688;29;20511;-70
2021/12/11 07:12:44;;;;;;;4.10;1.80;;;5.10;96.70;;;;;;4852320;29;20385;-71
2021/12/11 07:15:12;;;;;;;3.45;1.98;;;5.10;96.70;;;;;;4852230;29;20063;-72
2021/12/11 07:17:40;;;;;;;2.55;1.90;;;5.20;96.70;;;;;;4857887;29;20064;-72
2021/12/11 07:20:12;;;;;;;3.30;1.88;;;5.30;96.70;;;;;;4869728;29;20053;-71
2021/12/11 07:22:41;;;;;;;2.83;1.83;;;5.40;96.70;;;;;;4869135;29;20041;-70
2021/12/11 07:25:16;;;;;;;3.60;2.42;;;5.50;96.70;;;;;;4873322;29;20041;-71
2021/12/11 07:27:45;;;;;;;5.15;2.60;;;5.50;96.70;;;;;;4872380;29;20052;-72
2021/12/11 07:30:14;;;;;;;3.45;2.47;;;5.50;96.70;;;;;;4857744;29;20112;-72
2021/12/11 07:32:42;;;;;;;3.58;2.38;;;5.50;96.70;;;;;;4870681;29;20041;-71
2021/12/11 07:35:13;;;;;;;5.00;2.45;;;5.50;96.70;;;;;;4870292;29;20080;-72
2021/12/11 07:37:47;;;;;;;3.95;1.95;;;5.60;96.70;;;;;;4867785;29;20041;-72
2021/12/11 07:40:14;;;;;;;4.60;1.55;;;5.50;96.70;;;;;;4871014;29;20096;-72
2021/12/11 07:42:42;;;;;;;3.17;1.88;;;5.50;96.70;;;;;;4872128;29;20127;-72
2021/12/11 07:45:10;;;;;;;3.15;1.77;;;5.40;96.70;;;;;;4870979;29;20048;-72
2021/12/11 07:47:37;;;;;;;2.53;1.50;;;5.40;96.70;;;;;;4855342;29;20057;-72
2021/12/11 07:50:06;;;;;;;2.38;1.50;;;5.50;96.70;;;;;;4878105;29;20052;-73
2021/12/11 07:52:35;;;;;;;5.28;1.60;;;5.50;96.70;;;;;;4874833;29;20044;-72
2021/12/11 07:55:03;;;;;;;2.75;1.70;;;5.50;96.70;;;;;;4868643;29;20048;-72
2021/12/11 07:57:31;;;;;;;18.88;12.10;;;5.60;96.70;;;;;;4872333;29;20047;-72
2021/12/11 07:59:58;;;;;;;13.98;5.25;;;5.60;96.70;;;;;;4851691;29;20073;-72
2021/12/11 08:02:26;;;;;;;10.15;6.13;;;5.60;96.70;;;;;;4871442;29;20117;-71
2021/12/11 08:04:55;;;;;;;6.32;3.85;;;5.60;96.70;;;;;;4869607;29;20049;-71
2021/12/11 08:07:22;;;;;;;5.10;3.10;;;5.70;96.70;;;;;;4866318;29;20100;-71
2021/12/11 08:09:52;;;;;;;5.32;3.05;;;5.70;96.70;;;;;;4868064;29;20499;-71
2021/12/11 08:12:20;;;;;;;5.20;2.90;;;5.70;96.70;;;;;;4872197;29;20048;-71
2021/12/11 08:14:50;;;;;;;6.13;3.92;;;5.50;96.70;;;;;;4851815;29;20053;-71
2021/12/11 08:17:18;;;;;;;5.60;3.35;;;5.50;96.70;;;;;;4854308;29;20525;-72
2021/12/11 08:19:46;;;;;;;8.32;3.92;;;5.60;96.70;;;;;;4872503;29;20062;-72
2021/12/11 08:22:15;;;;;;;6.13;3.20;;;5.70;96.70;;;;;;4873349;29;20048;-72
2021/12/11 08:24:43;;;;;;;3.67;2.33;;;5.70;96.70;;;;;;4870514;29;20041;-71
2021/12/11 08:27:16;;;;;;;6.00;3.55;;;5.70;96.70;;;;;;4875465;29;20473;-72
2021/12/11 08:29:47;;;;;;;5.30;3.50;;;5.60;96.70;;;;;;4860368;29;20053;-72
2021/12/11 08:32:18;;;;;;;16.15;3.90;;;5.60;96.70;;;;;;4858370;29;20426;-72
2021/12/11 08:34:48;;;;;;;8.52;4.15;;;5.70;96.70;;;;;;4879863;29;20128;-72
2021/12/11 08:37:20;;;;;;;7.03;4.10;;;5.50;96.70;;;;;;4857735;29;20048;-71
2021/12/11 08:39:48;;;;;;;11.10;4.38;;;5.60;96.70;;;;;;4872931;29;20041;-71
2021/12/11 08:42:21;;;;;;;13.65;6.05;;;5.60;96.70;;;;;;4855478;29;20075;-72
2021/12/11 08:44:53;;;;;;;10.85;4.68;;;5.50;96.70;;;;;;4843866;29;20143;-72
2021/12/11 08:47:22;;;;;;;7.25;4.38;;;5.50;96.70;;;;;;4866922;29;20616;-72
2021/12/11 08:49:52;;;;;;;6.63;4.32;;;5.50;96.70;;;;;;4839077;29;20067;-72
2021/12/11 08:52:24;;;;;;;6.85;4.28;;;5.50;96.70;;;;;;4867525;29;20068;-71
2021/12/11 08:54:55;;;;;;;6.97;3.78;;;5.50;96.70;;;;;;4851795;29;20060;-72
2021/12/11 08:57:28;;;;;;;10.60;7.30;;;5.60;96.70;;;;;;4854890;29;20105;-71
2021/12/11 09:00:01;;;;;;;8.77;4.75;;;5.50;96.70;;;;;;4868150;29;20399;-71
2021/12/11 09:02:34;;;;;;;7.13;4.95;;;5.50;96.70;;;;;;4864110;29;20120;-73
2021/12/11 09:05:10;;;;;;;12.40;5.03;;;5.60;96.70;;;;;;4849298;29;20823;-71
2021/12/11 09:07:41;;;;;;;14.98;6.85;;;5.80;96.70;;;;;;4870480;29;20061;-71
2021/12/11 09:10:14;;;;;;;11.38;7.47;;;5.70;96.70;;;;;;4871642;29;20512;-72
2021/12/11 09:12:47;;;;;;;7.68;5.30;;;5.70;96.70;;;;;;4869123;29;20844;-73
2021/12/11 09:15:22;;;;;;;7.03;5.15;;;5.60;96.70;;;;;;4868753;29;20597;-73
2021/12/11 09:17:55;;;;;;;9.32;6.13;;;5.70;96.70;;;;;;4848693;29;20048;-72
2021/12/11 09:20:34;;;;;;;6.60;5.05;;;6.00;96.70;;;;;;4871387;29;20048;-72
2021/12/11 09:23:07;;;;;;;6.70;5.07;;;6.00;96.70;;;;;;4867087;29;20049;-73
2021/12/11 09:25:43;;;;;;;6.97;3.78;;;6.20;96.70;;;;;;4850541;29;20437;-72
2021/12/11 09:28:16;;;;;;;7.80;4.90;;;6.40;96.70;;;;;;4869139;29;20045;-71
2021/12/11 09:30:48;;;;;;;7.00;5.55;;;6.50;96.70;;;;;;4866257;29;20120;-72
2021/12/11 09:33:23;;;;;;;6.00;5.15;;;6.60;96.70;;;;;;4867656;29;20063;-72
2021/12/11 09:35:54;;;;;;;8.30;5.22;;;6.70;96.70;;;;;;4868169;29;20048;-73
2021/12/11 09:38:26;;;;;;;8.52;5.15;;;6.90;96.70;;;;;;4868385;29;20059;-72
2021/12/11 09:40:54;;;;;;;10.57;6.68;;;7.00;96.70;;;;;;4850700;29;21077;-72
2021/12/11 09:43:33;;;;;;;11.00;5.15;;;7.10;96.70;;;;;;4840757;29;20040;-72
2021/12/11 09:46:04;;;;;;;8.73;4.30;;;7.40;96.70;;;;;;4821935;29;20045;-71
2021/12/11 09:48:33;;;;;;;6.03;3.42;;;7.50;96.70;;;;;;4818206;29;20052;-72
2021/12/11 09:51:04;;;;;;;5.55;3.60;;;7.70;96.70;;;;;;4867800;29;20809;-72
2021/12/11 09:53:37;;;;;;;6.65;3.78;;;7.80;96.70;;;;;;4797330;29;20529;-74
2021/12/11 09:56:09;;;;;;;7.32;3.58;;;7.90;96.70;;;;;;4853026;29;20149;-71
2021/12/11 09:58:40;;;;;;;3.83;2.65;;;7.90;96.70;;;;;;4869322;29;20048;-72
2021/12/11 10:01:13;;;;;;;4.82;3.08;;;8.10;96.70;;;;;;4870312;29;20073;-71
2021/12/11 10:03:46;;;;;;;4.28;2.10;;;8.30;96.70;;;;;;4869562;29;20099;-71
2021/12/11 10:06:37;;;;;;;2.60;1.70;;;8.50;96.70;;;;;;4867543;29;20053;-71
2021/12/11 10:09:18;;;;;;;3.80;1.90;;;8.70;96.70;;;;;;4867811;29;20423;-72
2021/12/11 10:11:56;;;;;;;4.20;2.10;;;9.00;96.70;;;;;;4851161;29;20057;-72
2021/12/11 10:14:29;;;;;;;2.60;1.38;;;9.10;96.70;;;;;;4851388;29;20052;-71
2021/12/11 10:17:00;;;;;;;3.10;1.00;;;9.30;96.70;;;;;;4868712;29;20051;-71
2021/12/11 10:19:29;;;;;;;1.40;0.85;;;9.40;96.70;;;;;;4869324;29;20407;-71
2021/12/11 10:22:04;;;;;;;1.20;0.80;;;9.60;96.70;;;;;;4867715;29;20053;-71
2021/12/11 10:24:34;;;;;;;1.40;0.90;;;9.70;96.70;;;;;;4866236;29;20496;-72
2021/12/11 10:27:06;;;;;;;1.98;1.25;;;9.80;96.70;;;;;;4849118;29;20392;-73
2021/12/11 10:29:37;;;;;;;3.10;1.30;;;9.90;96.70;;;;;;4863591;29;20056;-72
2021/12/11 10:32:10;;;;;;;3.00;2.10;;;10.10;96.70;;;;;;4834750;29;20172;-72
2021/12/11 10:34:43;;;;;;;2.28;1.27;;;10.30;96.70;;;;;;4866571;29;20060;-72
2021/12/11 10:37:15;;;;;;;2.33;1.00;;;10.30;96.70;;;;;;4865908;29;20072;-72
2021/12/11 10:39:48;;;;;;;2.38;0.90;;;10.30;96.70;;;;;;4867254;29;20437;-72
2021/12/11 10:42:17;;;;;;;2.95;1.42;;;10.50;96.70;;;;;;4870090;29;20807;-71
2021/12/11 10:44:50;;;;;;;2.67;0.68;;;10.50;96.70;;;;;;4870421;29;20139;-72
2021/12/11 10:47:20;;;;;;;2.03;0.68;;;10.60;96.70;;;;;;4865735;29;20048;-73
2021/12/11 10:50:12;;;;;;;1.23;0.60;;;10.70;96.70;;;;;;4866960;29;20065;-72
2021/12/11 10:52:40;;;;;;;1.00;0.40;;;10.70;96.70;;;;;;4868213;29;20575;-71
2021/12/11 10:55:12;;;;;;;0.57;0.30;;;10.70;96.70;;;;;;4852313;29;20052;-74
2021/12/11 10:57:41;;;;;;;0.40;0.20;;;10.70;96.70;;;;;;4851932;29;20075;-72
2021/12/11 11:00:19;;;;;;;1.92;0.68;;;10.80;96.70;;;;;;4869833;29;20056;-71
2021/12/11 11:02:47;;;;;;;2.10;0.50;;;10.90;96.70;;;;;;4864683;29;20041;-71
2021/12/11 11:05:18;;;;;;;0.45;0.30;;;10.90;96.70;;;;;;4852929;29;20108;-70
2021/12/11 11:07:47;;;;;;;0.65;0.40;;;10.90;96.70;;;;;;4867109;29;20067;-71
2021/12/11 11:10:18;;;;;;;1.13;0.50;;;11.00;96.70;;;;;;4869287;29;20668;-71
2021/12/11 11:12:48;;;;;;;0.88;0.50;;;11.10;96.70;;;;;;4851372;29;20431;-71
2021/12/11 11:15:21;;;;;;;1.17;0.50;;;11.10;96.70;;;;;;4869895;29;20531;-71
2021/12/11 11:17:51;;;;;;;1.95;0.50;;;11.30;96.70;;;;;;4853795;29;20091;-71
2021/12/11 11:20:24;;;;;;;1.02;0.60;;;11.30;96.70;;;;;;4866767;29;20045;-71
2021/12/11 11:22:53;;;;;;;1.10;0.50;;;11.40;96.70;;;;;;4866531;29;20044;-71
2021/12/11 11:25:25;;;;;;;2.05;1.10;;;11.40;96.70;;;;;;4873296;29;20045;-71
2021/12/11 11:27:57;;;;;;;1.52;1.00;;;11.50;96.70;;;;;;4872458;29;20489;-71
2021/12/11 11:30:32;;;;;;;8.93;4.82;;;11.60;96.70;;;;;;4854943;29;20496;-72
2021/12/11 11:33:02;;;;;;;11.00;7.53;;;11.60;96.70;;;;;;4875161;29;20121;-71
2021/12/11 11:35:32;;;;;;;6.50;4.10;;;11.70;96.70;;;;;;4869295;29;20052;-71
2021/12/11 11:38:02;;;;;;;2.85;1.70;;;11.70;96.70;;;;;;4869875;29;20123;-72
2021/12/11 11:40:34;;;;;;;1.50;0.80;;;11.80;96.70;;;;;;4857617;29;20056;-71
2021/12/11 11:43:04;;;;;;;0.70;0.38;;;11.90;96.70;;;;;;4870674;29;20037;-71
2021/12/11 11:45:34;;;;;;;0.73;0.32;;;11.90;96.70;;;;;;4869837;29;20041;-72
2021/12/11 11:48:03;;;;;;;0.47;0.38;;;12.00;96.70;;;;;;4860106;29;20045;-71
2021/12/11 11:50:38;;;;;;;3.60;0.50;;;12.10;96.70;;;;;;4868930;29;20128;-72
2021/12/11 11:53:07;;;;;;;0.85;0.60;;;12.10;96.70;;;;;;4870845;29;20049;-71
2021/12/11 11:55:42;;;;;;;0.70;0.40;;;12.10;96.70;;;;;;4853636;29;20120;-71
2021/12/11 11:58:10;;;;;;;3.60;2.17;;;12.20;96.70;;;;;;4871331;29;20037;-71
2021/12/11 12:00:46;;;;;;;1.10;0.73;;;12.20;96.70;;;;;;4871235;29;20037;-72
2021/12/11 12:03:20;;;;;;;4.47;1.70;;;12.40;96.70;;;;;;4854404;29;20462;-72
2021/12/11 12:05:51;;;;;;;1.30;0.75;;;12.40;96.70;;;;;;4872345;29;20044;-72
2021/12/11 12:08:19;;;;;;;3.08;0.70;;;12.50;96.70;;;;;;4866529;29;20064;-71
2021/12/11 12:10:49;;;;;;;1.65;0.63;;;12.60;96.70;;;;;;4870852;29;20053;-71
2021/12/11 12:13:19;;;;;;;2.53;0.57;;;12.60;96.60;;;;;;4869053;29;20660;-73
2021/12/11 12:15:51;;;;;;;2.15;0.50;;;12.70;96.70;;;;;;4866688;29;20044;-72
2021/12/11 12:18:20;;;;;;;1.65;0.50;;;12.80;96.70;;;;;;4872745;29;20044;-72
2021/12/11 12:20:55;;;;;;;4.45;2.67;;;12.80;96.00;;;;;;4870832;29;20044;-72
2021/12/11 12:23:24;;;;;;;1.30;0.85;;;12.90;96.70;;;;;;4869022;29;20165;-72
2021/12/11 12:25:53;;;;;;;1.10;0.70;;;12.90;96.00;;;;;;4869297;29;20131;-72
2021/12/11 12:28:22;;;;;;;1.20;0.65;;;12.90;95.10;;;;;;4853297;29;20037;-72
2021/12/11 12:30:54;;;;;;;0.85;0.43;;;12.90;95.00;;;;;;4869191;29;20114;-71
2021/12/11 12:33:23;;;;;;;0.60;0.45;;;13.00;95.50;;;;;;4868246;29;20128;-71
2021/12/11 12:35:51;;;;;;;2.55;0.30;;;13.00;95.50;;;;;;4869761;29;20131;-72
2021/12/11 12:38:23;;;;;;;0.85;0.50;;;13.00;95.80;;;;;;4875648;29;20049;-72
2021/12/11 12:40:59;;;;;;;0.63;0.40;;;12.90;94.60;;;;;;4872443;29;20041;-72
2021/12/11 12:43:54;;;;;;;1.50;0.75;;;12.90;94.90;;;;;;4853074;29;20048;-71
2021/12/11 12:46:26;;;;;;;0.93;0.40;;;13.00;95.50;;;;;;4850420;29;20049;-71
2021/12/11 12:48:55;;;;;;;1.00;0.50;;;12.90;95.10;;;;;;4878958;29;20230;-71
2021/12/11 12:51:24;;;;;;;1.83;0.50;;;12.90;94.90;;;;;;4869995;29;20041;-71
2021/12/11 12:53:52;;;;;;;0.82;0.50;;;12.90;95.10;;;;;;4869702;29;20068;-71
2021/12/11 12:56:26;;;;;;;0.70;0.40;;;12.90;94.80;;;;;;4868903;29;20049;-71
2021/12/11 12:59:06;;;;;;;1.17;0.60;;;12.80;93.80;;;;;;4870605;29;20048;-71
2021/12/11 13:01:41;;;;;;;2.97;0.77;;;12.80;94.70;;;;;;4868563;29;20045;-71
2021/12/11 13:04:14;;;;;;;1.67;0.77;;;12.90;94.80;;;;;;4867943;29;20149;-71
2021/12/11 13:06:46;;;;;;;1.65;0.70;;;12.80;94.30;;;;;;4853460;29;20316;-71
2021/12/11 13:09:19;;;;;;;1.00;0.50;;;12.90;94.60;;;;;;4870838;29;20124;-71
2021/12/11 13:11:51;;;;;;;0.75;0.40;;;12.70;93.90;;;;;;4873346;29;20247;-73
2021/12/11 13:14:19;;;;;;;2.58;0.50;;;12.80;94.50;;;;;;4872918;29;20074;-73
2021/12/11 13:16:54;;;;;;;0.95;0.40;;;12.80;93.70;;;;;;4853439;29;20060;-73
2021/12/11 13:19:26;;;;;;;1.00;0.50;;;12.70;94.10;;;;;;4866658;29;20077;-72
2021/12/11 13:21:57;;;;;;;1.63;0.47;;;12.60;94.10;;;;;;4868557;29;20055;-71
2021/12/11 13:24:26;;;;;;;2.05;1.60;;;12.50;94.30;;;;;;4868752;29;20085;-72
2021/12/11 13:26:58;;;;;;;3.08;1.60;;;12.40;95.00;;;;;;4868550;29;20037;-73
2021/12/11 13:29:29;;;;;;;7.43;5.70;;;12.40;95.00;;;;;;4857038;29;20049;-73
2021/12/11 13:32:03;;;;;;;8.70;6.15;;;12.40;94.80;;;;;;4869488;29;20342;-72
2021/12/11 13:34:33;;;;;;;29.00;13.55;;;12.30;93.80;;;;;;4867778;29;20068;-73